Time,TemperatureF,DewpointF,PressureIn,WindDirection,WindDirectionDegrees,WindSpeedMPH,WindSpeedGustMPH,Humidity,HourlyPrecipIn,Conditions,Clouds,dailyrainin,SolarRadiationWatts/m^2,UVIndex,SoftwareType,DateUTC
2026-05-04 00:04:56,41.4,39,30.08,East,87,0.4,1.2,91,0.00,,,0.00,0,0,n/a,2026-05-04T04:04:56Z
2026-05-04 00:09:59,41.3,39,30.08,East,87,0.7,1.2,91.3,0.00,,,0.00,0,0,n/a,2026-05-04T04:09:59Z
2026-05-04 00:14:58,41.3,39.2,30.09,East,87,0.6,1.2,92,0.00,,,0.00,0,0,n/a,2026-05-04T04:14:58Z
2026-05-04 00:19:57,41.2,39.1,30.09,East,87,0,1.2,92,0.00,,,0.00,0,0,n/a,2026-05-04T04:19:57Z
2026-05-04 00:24:59,41.1,39,30.09,East,87,0.2,1.2,92,0.00,,,0.00,0,0,n/a,2026-05-04T04:24:59Z
2026-05-04 00:29:57,41,38.9,30.09,East,87,0.9,1.2,92,0.00,,,0.00,0,0,n/a,2026-05-04T04:29:57Z
2026-05-04 00:34:56,41.1,39,30.09,East,87,0.8,1.2,92,0.00,,,0.00,0,0,n/a,2026-05-04T04:34:56Z
2026-05-04 00:39:59,41,38.9,30.09,East,87,0.7,1.2,92,0.00,,,0.00,0,0,n/a,2026-05-04T04:39:59Z
2026-05-04 00:44:58,40.9,38.8,30.09,East,87,0.7,1.2,92,0.00,,,0.00,0,0,n/a,2026-05-04T04:44:58Z
2026-05-04 00:49:56,40.8,38.7,30.08,East,87,0.3,1.2,92,0.00,,,0.00,0,0,n/a,2026-05-04T04:49:56Z
2026-05-04 00:54:59,40.7,38.6,30.08,East,87,0.1,1.2,92,0.00,,,0.00,0,0,n/a,2026-05-04T04:54:59Z
2026-05-04 00:59:57,40.5,38.4,30.08,East,87,0.6,1.2,92,0.00,,,0.00,0,0,n/a,2026-05-04T04:59:57Z
2026-05-04 01:04:57,40.3,38.2,30.08,East,87,0.1,1.2,92,0.00,,,0.00,0,0,n/a,2026-05-04T05:04:57Z
2026-05-04 01:09:57,40.2,38.1,30.08,East,87,0,0,92,0.00,,,0.00,0,0,n/a,2026-05-04T05:09:57Z
2026-05-04 01:14:57,40,37.9,30.08,East,87,0,1.2,92,0.00,,,0.00,0,0,n/a,2026-05-04T05:14:57Z
2026-05-04 01:19:58,39.9,37.9,30.08,East,87,0.3,1.2,92.6,0.00,,,0.00,0,0,n/a,2026-05-04T05:19:58Z
2026-05-04 01:24:57,39.9,38,30.08,East,87,0,0,93,0.00,,,0.00,0,0,n/a,2026-05-04T05:24:57Z
2026-05-04 01:29:59,39.8,37.9,30.08,East,87,0,0,93,0.00,,,0.00,0,0,n/a,2026-05-04T05:29:59Z
2026-05-04 01:34:58,39.7,37.8,30.08,East,87,0.2,1.2,93,0.00,,,0.00,0,0,n/a,2026-05-04T05:34:58Z
2026-05-04 01:39:57,39.6,37.7,30.08,East,87,0.4,1.2,93,0.00,,,0.00,0,0,n/a,2026-05-04T05:39:57Z
2026-05-04 01:44:56,39.7,37.8,30.08,East,87,0.7,1.2,93,0.00,,,0.00,0,0,n/a,2026-05-04T05:44:56Z
2026-05-04 01:49:58,39.7,37.8,30.08,East,87,0.3,1.2,93,0.00,,,0.00,0,0,n/a,2026-05-04T05:49:58Z
2026-05-04 01:54:56,39.7,37.8,30.08,East,87,0.2,2.4,93,0.00,,,0.00,0,0,n/a,2026-05-04T05:54:56Z
2026-05-04 01:59:59,39.7,37.8,30.08,East,91,0.6,2.4,93,0.00,,,0.00,0,0,n/a,2026-05-04T05:59:59Z
2026-05-04 02:04:59,39.7,37.8,30.08,East,95,0.2,1.2,93,0.00,,,0.00,0,0,n/a,2026-05-04T06:04:59Z
2026-05-04 02:09:59,39.7,37.8,30.08,ESE,108,0.5,2.4,93,0.00,,,0.00,0,0,n/a,2026-05-04T06:09:59Z
2026-05-04 02:14:58,39.8,38.2,30.08,SE,129,1,2.4,94,0.00,,,0.00,0,0,n/a,2026-05-04T06:14:58Z
2026-05-04 02:19:55,39.8,38.2,30.07,ESE,106,0.9,2.4,94,0.00,,,0.00,0,0,n/a,2026-05-04T06:19:55Z
2026-05-04 02:24:58,39.9,38.3,30.07,ESE,111,0.4,1.2,94,0.00,,,0.00,0,0,n/a,2026-05-04T06:24:58Z
2026-05-04 02:29:56,40,38.4,30.08,East,82,0.4,1.2,94,0.00,,,0.00,0,0,n/a,2026-05-04T06:29:56Z
2026-05-04 02:34:58,40.2,38.6,30.08,ENE,73,0.2,1.2,94,0.00,,,0.00,0,0,n/a,2026-05-04T06:34:58Z
2026-05-04 02:39:57,40.4,38.8,30.08,ENE,73,0.4,2.4,94,0.00,,,0.00,0,0,n/a,2026-05-04T06:39:57Z
2026-05-04 02:44:59,40.5,38.9,30.08,ENE,73,1.1,2.4,94,0.00,,,0.00,0,0,n/a,2026-05-04T06:44:59Z
2026-05-04 02:49:57,40.4,38.8,30.07,ENE,73,0.7,1.2,94,0.00,,,0.00,0,0,n/a,2026-05-04T06:49:57Z
2026-05-04 02:54:59,40.2,38.6,30.07,ENE,73,0,1.2,94,0.00,,,0.00,0,0,n/a,2026-05-04T06:54:59Z
2026-05-04 02:59:57,40.1,38.5,30.07,ENE,73,0.5,1.2,94,0.00,,,0.00,0,0,n/a,2026-05-04T06:59:57Z
2026-05-04 03:04:59,40.1,38.5,30.07,ENE,73,1.1,2.4,94,0.00,,,0.00,0,0,n/a,2026-05-04T07:04:59Z
2026-05-04 03:09:59,40.1,38.5,30.07,ENE,73,0.8,2.3,94,0.00,,,0.00,0,0,n/a,2026-05-04T07:09:59Z
2026-05-04 03:14:58,40.1,38.5,30.07,ENE,73,0.6,1.2,94,0.00,,,0.00,0,0,n/a,2026-05-04T07:14:58Z
2026-05-04 03:19:56,40,38.4,30.07,ENE,73,0.1,1.2,94,0.00,,,0.00,0,0,n/a,2026-05-04T07:19:56Z
2026-05-04 03:24:59,40,38.4,30.07,ENE,73,0.2,1.2,94,0.00,,,0.00,0,0,n/a,2026-05-04T07:24:59Z
2026-05-04 03:29:57,39.8,38.2,30.07,ENE,73,0,1.2,94,0.00,,,0.00,0,0,n/a,2026-05-04T07:29:57Z
2026-05-04 03:34:56,39.8,38.2,30.07,ENE,73,0,0,94,0.00,,,0.00,0,0,n/a,2026-05-04T07:34:56Z
2026-05-04 03:39:58,40.1,38.5,30.07,ENE,73,0.2,1.2,94,0.00,,,0.00,0,0,n/a,2026-05-04T07:39:58Z
2026-05-04 03:44:56,40.3,38.9,30.07,ENE,73,0.5,1.2,94.5,0.00,,,0.00,0,0,n/a,2026-05-04T07:44:56Z
2026-05-04 03:49:59,40.5,38.9,30.07,ENE,73,0.1,1.2,94,0.00,,,0.00,0,0,n/a,2026-05-04T07:49:59Z
2026-05-04 03:54:58,40.6,39,30.07,ENE,73,0,0,94,0.00,,,0.00,0,0,n/a,2026-05-04T07:54:58Z
2026-05-04 03:59:56,40.5,38.9,30.07,ENE,73,0,0,94,0.00,,,0.00,0,0,n/a,2026-05-04T07:59:56Z
2026-05-04 04:04:59,40.4,38.8,30.07,ENE,73,0,0,94,0.00,,,0.00,0,0,n/a,2026-05-04T08:04:59Z
2026-05-04 04:09:59,40.3,38.7,30.07,ENE,73,0,0,94,0.00,,,0.00,0,0,n/a,2026-05-04T08:09:59Z
2026-05-04 04:14:59,40.3,38.7,30.07,ENE,73,0,0,94,0.00,,,0.00,0,0,n/a,2026-05-04T08:14:59Z
2026-05-04 04:19:57,40.2,38.6,30.07,ENE,73,0,0,94,0.00,,,0.00,0,0,n/a,2026-05-04T08:19:57Z
2026-05-04 04:24:59,40.1,38.7,30.07,ENE,73,0.2,1.2,94.7,0.00,,,0.00,0,0,n/a,2026-05-04T08:24:59Z
2026-05-04 04:29:57,40.2,38.9,30.07,ENE,73,0.1,1.2,95,0.00,,,0.00,0,0,n/a,2026-05-04T08:29:57Z
2026-05-04 04:34:56,40.1,38.8,30.07,ENE,73,0,0,95,0.00,,,0.00,0,0,n/a,2026-05-04T08:34:56Z
2026-05-04 04:39:58,40,38.6,30.07,ENE,73,0,0,94.8,0.00,,,0.00,0,0,n/a,2026-05-04T08:39:58Z
2026-05-04 04:44:57,40,38.4,30.07,ENE,73,0,0,94,0.00,,,0.00,0,0,n/a,2026-05-04T08:44:57Z
2026-05-04 04:49:59,40,38.6,30.07,ENE,74,0,0,94.7,0.00,,,0.00,0,0,n/a,2026-05-04T08:49:59Z
2026-05-04 04:54:58,40,38.7,30.07,ENE,73,0,0,95,0.00,,,0.00,0,0,n/a,2026-05-04T08:54:58Z
2026-05-04 04:59:56,39.9,38.3,30.07,ENE,73,0,0,94,0.00,,,0.00,0,0,n/a,2026-05-04T08:59:56Z
2026-05-04 05:04:56,39.8,38.2,30.07,ENE,73,0,0,94,0.00,,,0.00,0,0,n/a,2026-05-04T09:04:56Z
2026-05-04 05:09:56,39.7,38.3,30.07,ENE,73,0,0,94.7,0.00,,,0.00,0,0,n/a,2026-05-04T09:09:56Z
2026-05-04 05:14:56,39.7,38.4,30.07,ENE,73,0,0,95,0.00,,,0.00,0,0,n/a,2026-05-04T09:14:56Z
2026-05-04 05:19:57,39.7,38.4,30.07,ENE,73,0,0,95,0.00,,,0.00,0,0,n/a,2026-05-04T09:19:57Z
2026-05-04 05:24:56,39.7,38.4,30.07,ENE,73,0,0,95,0.00,,,0.00,0,0,n/a,2026-05-04T09:24:56Z
2026-05-04 05:29:58,39.7,38.4,30.07,ENE,73,0,0,95,0.00,,,0.00,0,0,n/a,2026-05-04T09:29:58Z
2026-05-04 05:34:56,39.7,38.4,30.07,ENE,73,0,0,95,0.00,,,0.00,0,0,n/a,2026-05-04T09:34:56Z
2026-05-04 05:39:59,39.5,38.2,30.07,ENE,73,0,0,95,0.00,,,0.00,0,0,n/a,2026-05-04T09:39:59Z
2026-05-04 05:44:57,39.5,38.2,30.07,ENE,73,0.2,1.2,95,0.00,,,0.00,0,0,n/a,2026-05-04T09:44:57Z
2026-05-04 05:49:59,39.5,38.2,30.07,ENE,73,0.1,1.2,95,0.00,,,0.00,0,0,n/a,2026-05-04T09:49:59Z
2026-05-04 05:54:57,39.5,38.2,30.07,ENE,73,0,0,95,0.00,,,0.00,0,0,n/a,2026-05-04T09:54:57Z
2026-05-04 05:59:59,39.4,38.1,30.07,ENE,73,0,1.2,95,0.00,,,0.00,0,0,n/a,2026-05-04T09:59:59Z
2026-05-04 06:04:59,39.3,38,30.07,ENE,73,0,1.2,95,0.00,,,0.00,0,0,n/a,2026-05-04T10:04:59Z
2026-05-04 06:09:56,39.2,37.9,30.07,ENE,73,0,0,95,0.00,,,0.00,0,0,n/a,2026-05-04T10:09:56Z
2026-05-04 06:14:59,39.2,37.9,30.07,ESE,116,0.2,2.4,95,0.00,,,0.00,0,0,n/a,2026-05-04T10:14:59Z
2026-05-04 06:19:56,39.2,37.9,30.07,SE,126,0.2,1.2,95,0.00,,,0.00,0,0,n/a,2026-05-04T10:19:56Z
2026-05-04 06:24:59,39.4,38.1,30.07,SE,126,0.1,1.2,95,0.00,,,0.00,5,0,n/a,2026-05-04T10:24:59Z
2026-05-04 06:29:57,39.5,38.2,30.07,SE,126,0,1.2,95,0.00,,,0.00,9,0,n/a,2026-05-04T10:29:57Z
2026-05-04 06:34:59,39.5,38.2,30.07,SE,126,0.1,1.2,95,0.00,,,0.00,12,0,n/a,2026-05-04T10:34:59Z
2026-05-04 06:39:57,39.6,38.3,30.07,SE,126,0,1.2,95,0.00,,,0.00,14,0,n/a,2026-05-04T10:39:57Z
2026-05-04 06:44:59,39.7,38.4,30.07,SE,126,0,1.2,95,0.00,,,0.00,25,0,n/a,2026-05-04T10:44:59Z
2026-05-04 06:49:56,39.8,38.5,30.07,SE,126,0,1.2,95,0.00,,,0.00,37,0,n/a,2026-05-04T10:49:56Z
2026-05-04 06:54:57,40.3,39,30.07,SE,126,0,1.2,95.1,0.00,,,0.00,44,0,n/a,2026-05-04T10:54:57Z
2026-05-04 06:59:57,41.2,40,30.07,SE,126,0,0,95.7,0.00,,,0.00,56,0,n/a,2026-05-04T10:59:57Z
2026-05-04 07:04:56,42.2,41.1,30.07,SE,126,0,0,96,0.00,,,0.00,67,0,n/a,2026-05-04T11:04:56Z
2026-05-04 07:09:57,43.4,42.3,30.07,SE,126,0,0,96,0.00,,,0.00,79,0,n/a,2026-05-04T11:09:57Z
2026-05-04 07:14:58,44.4,43.3,30.07,SE,126,0,0,96,0.00,,,0.00,93,0,n/a,2026-05-04T11:14:58Z
2026-05-04 07:19:59,45.3,44.2,30.07,SE,126,0,0,96,0.00,,,0.00,104,0,n/a,2026-05-04T11:19:59Z
2026-05-04 07:24:56,46.9,45.8,30.07,East,97,0,1.2,96,0.00,,,0.00,121,0,n/a,2026-05-04T11:24:56Z
2026-05-04 07:29:57,48.2,47.2,30.08,East,97,0,0,96.3,0.00,,,0.00,134,0,n/a,2026-05-04T11:29:57Z
2026-05-04 07:34:59,49,48,30.08,East,97,0,1.2,96.1,0.00,,,0.00,148,0,n/a,2026-05-04T11:34:59Z
2026-05-04 07:39:57,49.7,48.7,30.08,East,97,0.2,1.2,96.4,0.00,,,0.00,162,0,n/a,2026-05-04T11:39:57Z
2026-05-04 07:44:58,50.6,49.7,30.08,East,97,0.4,1.2,96.7,0.00,,,0.00,178,0,n/a,2026-05-04T11:44:58Z
2026-05-04 07:49:59,51.4,50.4,30.07,East,97,0.3,1.2,96.4,0.00,,,0.00,192,0.5,n/a,2026-05-04T11:49:59Z
2026-05-04 07:54:56,52.2,51.1,30.07,East,99,0.5,2.4,96,0.00,,,0.00,206,0.5,n/a,2026-05-04T11:54:56Z